• Join FlightAware (Why Join?)
  • Login
  • US Flag 
04:29AM EDT


 

Airport Tracker/Info


-or-


 

Live Flight TrackerFlight Track Log ✈ N415JA ✈ 10-Feb-2014 ✈ MBPV / PLS - KMIA

Flight Track Log - Related Links

Times and Time Zones

All times are in EST time to prevent confusion due to time zone crossing. See the N415JA flight status page for this flight to view local times or setup timezone preferences in your user account.

Time Position Orientation Groundspeed Altitude Reporting Facility
EST Latitude Longitude Course Direction KTS MPH feet Rate Location/Type
04:39PM 21.7700 -72.1650 293° West 429 494 5,700  Level Miami Center
04:40PM 21.8431 -72.1578 North 268 308 7,900 2,700 Climbing Miami Center
04:41PM 21.8850 -72.2369 300° West 199 229 11,200 2,820 Climbing Miami Center
04:42PM 21.9272 -72.3225 298° West 254 292 13,600 2,340 Climbing Miami Center
04:44PM 22.0246 -72.7948 293° West  Level FlightAware Approximate
04:44PM 22.0203 -72.5075 299° West 341 392 18,300  Level Miami Center
04:45PM 22.0667 -72.6022 298° West 354 407 20,500 2,040 Climbing Miami Center
04:46PM 22.1133 -72.6972 298° West 361 415 22,400 1,980 Climbing Miami Center
04:47PM 22.1619 -72.7942 298° West 361 415 24,500 2,220 Climbing Miami Center
04:48PM 22.2081 -72.8869 298° West 361 415 26,900 1,560 Climbing Miami Center
04:49PM 22.2567 -72.9842 298° West 361 415 27,700 900 Climbing Miami Center
04:50PM 22.3092 -73.0858 299° West 373 429 28,800 1,020 Climbing Miami Center
04:51PM 22.3578 -73.1922 296° West 385 443 29,800 1,200 Climbing Miami Center
04:52PM 22.4125 -73.2983 299° West 390 449 31,300 1,620 Climbing Miami Center
04:53PM 22.4628 -73.4003 298° West 390 449 33,100 1,680 Climbing Miami Center
04:54PM 22.5047 -73.4914 297° West 390 449 34,700 1,440 Climbing Miami Center
04:55PM 22.5506 -73.5892 297° West 378 435 36,000 600 Climbing Miami Center
04:56PM 22.6050 -73.6889 301° West 378 435 36,000  Level Miami Center
04:57PM 22.6531 -73.7981 296° West 390 449 36,000  Level Miami Center
04:58PM 22.7075 -73.9047 299° West 401 461 36,000  Level Miami Center
04:59PM 22.7597 -74.0139 297° West 406 467 36,000  Level Miami Center
05:01PM 22.8639 -74.2258 298° West 401 461 36,000  Level Miami Center
05:03PM 22.9697 -74.4381 298° West 401 461 36,000  Level Miami Center
05:04PM 23.0175 -74.5431 296° West 401 461 36,000  Level Miami Center
05:06PM 23.1186 -74.7492 298° West 396 456 36,000  Level Miami Center
05:07PM 23.1703 -74.8500 299° West 384 442 36,000  Level Miami Center
05:08PM 23.2175 -74.9556 296° West 384 442 36,000  Level Miami Center
05:10PM 23.3139 -75.1597 297° West 384 442 36,000  Level Miami Center
05:11PM 23.3653 -75.2611 299° West 384 442 36,000  Level Miami Center
05:12PM 23.4144 -75.3622 298° West 384 442 36,000  Level Miami Center
05:13PM 23.4633 -75.4636 298° West 384 442 36,000  Level Miami Center
05:14PM 23.5125 -75.5650 298° West 384 442 36,000  Level Miami Center
05:15PM 23.5633 -75.6667 299° West 384 442 36,000  Level Miami Center
05:16PM 23.6144 -75.7750 297° West 389 448 36,000  Level Miami Center
05:17PM 23.6633 -75.8881 295° West 383 441 36,000  Level Miami Center
05:18PM 23.7078 -75.9897 296° West 383 441 36,000  Level Miami Center
05:19PM 23.7583 -76.0914 299° West 383 441 36,000  Level Miami Center
05:20PM 23.8028 -76.1933 295° West 378 435 36,000  Level Miami Center
05:21PM 23.8514 -76.2953 298° West 378 435 36,000  Level Miami Center
05:22PM 23.8997 -76.3975 297° West 378 435 36,000  Level Miami Center
05:24PM 23.9922 -76.5972 297° West 378 435 36,000  Level Miami Center
05:25PM 24.0383 -76.6972 297° West 378 435 36,000  Level Miami Center
05:26PM 24.0803 -76.7883 297° West 378 435 36,000  Level Miami Center
05:27PM 24.1283 -76.8975 296° West 384 442 36,000  Level Miami Center
05:28PM 24.1806 -77.0047 298° West 390 449 36,000  Level Miami Center
05:29PM 24.2283 -77.1142 296° West 395 455 36,000  Level Miami Center
05:30PM 24.2783 -77.2258 296° West 400 460 36,000  Level Miami Center
05:31PM 24.3281 -77.3356 296° West 406 467 36,000  Level Miami Center
05:32PM 24.3800 -77.4453 297° West 401 461 36,000  Level Miami Center
05:34PM 24.4772 -77.6650 296° West 406 467 36,000  Level Miami Center
05:35PM 24.5267 -77.7747 296° West 401 461 36,000  Level Miami Center
05:36PM 24.5761 -77.8803 297° West 401 461 36,000  Level Miami Center
05:37PM 24.6236 -77.9906 295° West 401 461 36,000 -780 Level Miami Center
05:38PM 24.6728 -78.0961 297° West 396 456 34,500 -1,800 Descending Miami Center
05:39PM 24.7219 -78.2086 296° West 391 450 32,400 -2,100 Descending Miami Center
05:40PM 24.7669 -78.3144 295° West 384 442 30,400 -2,040 Descending Miami Center
05:41PM 24.8181 -78.4203 298° West 384 442 28,400 -2,100 Descending Miami Center
05:42PM 24.8631 -78.5286 295° West 384 442 26,200 -2,100 Descending Miami Center
05:43PM 24.9119 -78.6347 297° West 384 442 24,200 -1,140 Descending Miami Center
05:44PM 24.9608 -78.7361 298° West 384 442 24,000 -120 Descending Miami Center
05:45PM 25.0011 -78.8400 293° West 384 442 24,000 -720 Level Miami Center
05:47PM 25.0925 -79.0342 297° West 379 436 22,000 -1,200 Descending Miami Center
05:48PM 25.1328 -79.1336 294° West 369 425 20,500 -1,500 Descending Miami Center
05:49PM 25.1753 -79.2308 296° West 357 411 19,100 -1,380 Descending Miami Center
05:50PM 25.2175 -79.3258 296° West 351 404 17,800 -1,380 Descending Miami Center
05:51PM 25.2578 -79.4208 295° West 346 398 16,400 -1,500 Descending Miami Center
05:51PM 25.2736 -79.4625 293° West 336 387 15,800 -1,320 Descending Miami Center
05:52PM 25.2978 -79.5089 300° West 340 391 15,100 -1,320 Descending Miami Center
05:52PM 25.3097 -79.5483 289° West 325 374 14,600 -1,320 Descending Miami Center
05:53PM 25.3381 -79.6017 300° West 335 386 13,800 -1,320 Descending Miami Center
05:53PM 25.3497 -79.6411 288° West 331 381 13,300 -1,320 Descending Miami Center
05:54PM 25.3761 -79.6900 301° West 329 379 12,500 -1,200 Descending Miami Center
05:54PM 25.3958 -79.7411 293° West 321 369 12,000 -420 Descending Miami Center
05:55PM 25.4467 -79.8158 307° West 329 379 12,000  Level Miami Center
05:56PM 25.4772 -79.8581 309° West 324 373 12,000  Level Miami Center
05:56PM 25.4994 -79.8978 302° West 331 381 12,000  Level Miami Center
05:57PM 25.5319 -79.9400 310° West 329 379 12,000  Level Miami Center
05:57PM 25.5561 -79.9797 304° West 329 379 12,000 -720 Level Miami Center
05:58PM 25.5844 -80.0197 308° West 334 384 11,300 -1,620 Descending Miami Center
05:58PM 25.6067 -80.0617 300° West 320 368 10,400 -1,800 Descending Miami Center
05:59PM 25.6414 -80.0903 323° Northwest 329 379 9,500 -1,380 Descending Miami Center
05:59PM 25.6681 -80.1117 324° Northwest 254 292 9,000 -540 Descending Miami Center
06:00PM 25.7053 -80.1289 337° Northwest 292 336 9,000  Level Miami Center
06:00PM 25.7403 -80.1622 319° Northwest 271 312 9,000  Level Miami Center
06:01PM 25.7669 -80.1744 338° Northwest 271 312 9,000  Level Miami Center
06:01PM 25.7978 -80.2053 318° Northwest 272 313 9,000 -1,140 Level Miami Center
06:02PM 25.8400 -80.2733 305° West 259 298 7,400 -1,680 Descending Miami Center
06:03PM 25.8822 -80.3369 306° West 248 285 5,600 -1,920 Descending Miami Center
06:04PM 25.9164 -80.4003 301° West 240 276 3,600 -1,620 Descending Miami Center
06:05PM 25.8694 -80.4428 219° Southwest 223 257 2,300 -840 Descending Miami Center
06:06PM 25.8150 -80.4433 181° South 170 196 2,000 -180 Descending Miami Center
06:07PM 25.7972 -80.4014 115° Southeast 163 188 2,000 -540 Level Miami Center
06:08PM 25.7983 -80.3553 88° East 140 161 1,000 -840 Descending Miami Center
06:09PM 25.8014 -80.3139 85° East 118 136 300 -660 Descending Miami Center
06:11PM 25.7954 -80.2901 138° Southeast  Level Estimated